Chesapeake, VA

01:11 AM EDT on Junyo 30, 2015 (GMT -0400)
South Greenbrier | | Change Station
CLOSE
Current Station
Personal Weather Stations
Location: Chesapeake, VA
Elevation: 33 ft
Nearby Weather Stations

Elev 33 ft 36.74 °N, 76.22 °W | Updated 35 seconds ago

Clear
Clear
72.9 °F
Feels Like 72.9 °F
N
0.0
Hangin Variable Hangin from SSE
Gusts 0.0 mph

Ngayon
High -- | Low -- °F
--% Chance of Precip.
Yesterday
High -- | Low -- °F
Precip. -- sa
5:49 AM 8:27 PM
Waxing Gibbous, 96% visible
Pwersa 29.98 sa
Paningin 10.0 milya
Mga Ulap Few 8000 ft
Hamog 70 °F
Humidito 92%
Rainfall sa
Snow Depth Not available.
UV 0 out of 12
Pollen 3.90 out of 12
Air Quality Not available.
Flu Activity Sporadic
METAR KNFE 300456Z AUTO 14004KT 10SM FEW080 24/21 A2997 RMK AO2 SLP151 T02440206

More Conditions Fewer Conditions

Pwersa 29.98 sa
Paningin 10.0 milya
Mga Ulap Few 8000 ft
Hamog 70 °F
Humidito 92%
Rainfall sa
Snow Depth Not available.
UV 0 out of 12
Pollen 3.90 out of 12
Air Quality Not available.
Flu Activity Sporadic
METAR KNFE 300456Z AUTO 14004KT 10SM FEW080 24/21 A2997 RMK AO2 SLP151 T02440206

More Conditions Fewer Conditions

10-Day Weather Forecast

×

Almanac

Astronomiya

Jun. 30, 2015 Rise Set
Actual Time
Civil Twilight
Nautical Twilight
Astronomical Twilight
Buwan
Length Of Visible Light
Haba ng Araw
Tomorrow will be .
, % of the Moon is Illuminated

Today's Extremes

State Highs State Lows

Community

WunderPhotos

Upload Photos

1,833,969 photos uploaded!

WunderBlogs® & News

Nearby

Air Quality

  Air Quality AQ Index Pollutant
Not available.

Snow Depth

Station Depth Elevation

Earthquake Activity

Siyudad Distance Mag. Time & Date
Minimum magnitude displayed is 2.5.

Coastal Water Temperatures

lugar Temparatura

Stations

Nearby Weather Stations

Station Location Temp Windchill Hamog Humidito Hangin Precip. Elev Bago Type